Time;durP1;ratioP1;P1;durP2;ratioP2;P2;SDS_P1;SDS_P2;PMS_P1;PMS_P2;Temp;Humidity;BMP_temperature;BMP_pressure;BME280_temperature;BME280_humidity;BME280_pressure;Samples;Min_cycle;Max_cycle;Signal;HPM_P1;HPM_P2
2022/09/15 00:01:57;;;;;;;4.25;1.50;;;;;;;;;;6151266;23;20101;-83
2022/09/15 00:04:23;;;;;;;2.53;1.60;;;;;;;;;;6151927;23;20014;-83
2022/09/15 00:06:49;;;;;;;4.55;1.85;;;;;;;;;;6151633;23;20021;-83
2022/09/15 00:09:15;;;;;;;4.80;2.22;;;;;;;;;;6150140;23;20499;-83
2022/09/15 00:11:41;;;;;;;2.70;1.30;;;;;;;;;;6149589;23;20025;-83
2022/09/15 00:14:08;;;;;;;3.67;1.55;;;;;;;;;;6150310;23;20473;-83
2022/09/15 00:16:34;;;;;;;3.35;1.50;;;;;;;;;;6125147;23;20021;-83
2022/09/15 00:19:00;;;;;;;6.10;1.85;;;;;;;;;;6150423;23;20025;-83
2022/09/15 00:21:27;;;;;;;7.22;1.65;;;;;;;;;;6149980;23;20056;-83
2022/09/15 00:23:54;;;;;;;8.48;1.98;;;;;;;;;;6149320;23;20466;-83
2022/09/15 00:26:22;;;;;;;6.35;2.05;;;;;;;;;;6151429;23;20355;-84
2022/09/15 00:28:48;;;;;;;3.83;1.80;;;;;;;;;;6150626;23;20049;-83
2022/09/15 00:31:16;;;;;;;5.35;1.80;;;;;;;;;;6150963;23;20025;-83
2022/09/15 00:33:45;;;;;;;7.00;1.95;;;;;;;;;;6151349;23;20051;-83
2022/09/15 00:36:11;;;;;;;1.92;1.40;;;;;;;;;;6151782;23;20017;-83
2022/09/15 00:38:37;;;;;;;8.25;2.17;;;;;;;;;;6151450;23;20072;-83
2022/09/15 00:41:05;;;;;;;6.78;2.00;;;;;;;;;;6152147;23;20022;-83
2022/09/15 00:43:49;;;;;;;4.82;1.60;;;;;;;;;;6149008;23;20028;-83
2022/09/15 00:46:16;;;;;;;5.93;1.75;;;;;;;;;;6124633;23;20205;-83
2022/09/15 00:48:51;;;;;;;8.07;2.10;;;;;;;;;;6148212;23;20021;-83
2022/09/15 00:51:19;;;;;;;12.05;2.20;;;;;;;;;;6131763;23;20033;-83
2022/09/15 00:53:45;;;;;;;5.78;1.63;;;;;;;;;;6151071;23;20041;-83
2022/09/15 00:56:12;;;;;;;4.07;1.85;;;;;;;;;;6149309;23;20021;-83
2022/09/15 00:58:44;;;;;;;6.28;2.00;;;;;;;;;;6149301;23;20025;-83
2022/09/15 01:01:11;;;;;;;4.20;2.13;;;;;;;;;;6149433;23;20092;-83
2022/09/15 01:03:37;;;;;;;5.30;2.05;;;;;;;;;;6151344;23;20033;-83
2022/09/15 01:06:14;;;;;;;6.07;2.05;;;;;;;;;;6150885;23;20025;-83
2022/09/15 01:08:48;;;;;;;8.70;2.05;;;;;;;;;;6148857;23;20190;-83
2022/09/15 01:11:15;;;;;;;13.80;2.97;;;;;;;;;;6148127;23;20024;-83
2022/09/15 01:13:42;;;;;;;8.13;2.17;;;;;;;;;;6149255;23;20061;-83
2022/09/15 01:16:15;;;;;;;7.65;2.10;;;;;;;;;;6150230;23;20469;-83
2022/09/15 01:18:53;;;;;;;7.78;2.05;;;;;;;;;;6150872;23;20017;-83
2022/09/15 01:21:35;;;;;;;3.90;1.50;;;;;;;;;;6151048;23;20017;-83
2022/09/15 01:24:20;;;;;;;5.32;1.90;;;;;;;;;;6150969;23;20054;-83
2022/09/15 01:26:58;;;;;;;6.90;1.90;;;;;;;;;;6150475;23;20021;-83
2022/09/15 01:29:43;;;;;;;5.18;1.80;;;;;;;;;;6150113;23;20018;-83
2022/09/15 01:35:04;;;;;;;6.88;2.03;;;;;;;;;;6150615;23;20021;-83
2022/09/15 01:37:32;;;;;;;7.78;2.00;;;;;;;;;;6150694;23;20025;-83
2022/09/15 01:40:00;;;;;;;9.10;1.95;;;;;;;;;;6150292;23;20014;-83
2022/09/15 01:42:27;;;;;;;3.70;1.77;;;;;;;;;;6150073;23;20028;-83
2022/09/15 01:44:57;;;;;;;9.55;2.10;;;;;;;;;;6150050;23;20305;-83
2022/09/15 01:47:25;;;;;;;7.53;1.95;;;;;;;;;;6150453;23;20044;-82
2022/09/15 01:49:56;;;;;;;3.58;1.90;;;;;;;;;;6120548;23;20032;-83
2022/09/15 01:52:23;;;;;;;4.05;1.70;;;;;;;;;;6151239;23;20100;-83
2022/09/15 01:54:55;;;;;;;7.10;2.03;;;;;;;;;;6150344;23;20025;-83
2022/09/15 01:57:22;;;;;;;5.43;2.00;;;;;;;;;;6149678;23;20427;-83
2022/09/15 01:59:53;;;;;;;9.73;2.10;;;;;;;;;;6150636;23;20028;-83
2022/09/15 02:02:41;;;;;;;4.65;2.03;;;;;;;;;;6150985;23;20014;-83
2022/09/15 02:05:12;;;;;;;7.80;2.38;;;;;;;;;;6150796;23;20025;-83
2022/09/15 02:10:21;;;;;;;2.85;1.95;;;;;;;;;;5573187;23;20029;-82
2022/09/15 02:12:51;;;;;;;4.97;2.05;;;;;;;;;;6183332;23;20021;-84
2022/09/15 02:15:24;;;;;;;8.35;1.92;;;;;;;;;;6182241;23;20022;-83
2022/09/15 02:17:53;;;;;;;5.63;2.03;;;;;;;;;;6153817;23;20032;-81
2022/09/15 02:20:32;;;;;;;4.85;1.85;;;;;;;;;;6150968;23;20085;-82
2022/09/15 02:23:01;;;;;;;5.55;2.50;;;;;;;;;;6125511;23;20048;-82
2022/09/15 02:25:30;;;;;;;6.18;2.20;;;;;;;;;;6151704;23;20018;-82
2022/09/15 02:27:59;;;;;;;6.30;2.30;;;;;;;;;;6152656;23;20021;-82
2022/09/15 02:30:26;;;;;;;7.90;1.90;;;;;;;;;;6152025;23;20018;-83
2022/09/15 02:32:56;;;;;;;6.05;1.83;;;;;;;;;;6151945;23;20026;-83
2022/09/15 02:35:23;;;;;;;2.60;1.73;;;;;;;;;;6151581;23;20080;-82
2022/09/15 02:37:50;;;;;;;10.43;2.00;;;;;;;;;;6152617;23;20286;-82
2022/09/15 02:40:19;;;;;;;5.88;2.00;;;;;;;;;;6151831;23;20013;-83
2022/09/15 02:42:55;;;;;;;4.95;1.70;;;;;;;;;;6150166;23;20021;-82
2022/09/15 02:45:23;;;;;;;7.07;2.25;;;;;;;;;;6150654;23;20014;-82
2022/09/15 02:47:49;;;;;;;5.97;2.03;;;;;;;;;;6150627;23;20018;-82
2022/09/15 02:50:16;;;;;;;8.90;3.03;;;;;;;;;;6127140;23;20014;-82
2022/09/15 02:52:42;;;;;;;5.90;2.13;;;;;;;;;;6150136;23;20025;-82
2022/09/15 02:55:08;;;;;;;7.60;2.00;;;;;;;;;;6151443;23;20020;-83
2022/09/15 02:57:34;;;;;;;8.27;2.10;;;;;;;;;;6152252;23;20318;-82
2022/09/15 03:00:34;;;;;;;7.95;2.10;;;;;;;;;;6150184;23;20537;-82
2022/09/15 03:02:53;;;;;;;6.85;1.98;;;;;;;;;;6147880;23;20021;-83
2022/09/15 03:05:24;;;;;;;7.45;1.85;;;;;;;;;;6150213;23;20060;-82
2022/09/15 03:07:50;;;;;;;4.22;1.80;;;;;;;;;;6151622;23;20049;-82
2022/09/15 03:10:17;;;;;;;8.90;2.20;;;;;;;;;;6152087;23;20009;-82
2022/09/15 03:12:49;;;;;;;8.10;2.28;;;;;;;;;;6151480;23;20021;-83
2022/09/15 03:15:17;;;;;;;5.78;2.35;;;;;;;;;;6150131;23;20057;-82
2022/09/15 03:17:45;;;;;;;9.05;2.25;;;;;;;;;;6150553;23;20041;-83
2022/09/15 03:20:12;;;;;;;7.95;2.33;;;;;;;;;;6151521;23;20405;-83
2022/09/15 03:22:38;;;;;;;3.85;2.05;;;;;;;;;;6149712;23;20451;-83
2022/09/15 03:25:05;;;;;;;9.68;2.25;;;;;;;;;;6150733;23;20041;-83
2022/09/15 03:27:31;;;;;;;5.85;2.15;;;;;;;;;;6152101;23;20048;-83
2022/09/15 03:29:58;;;;;;;5.30;1.75;;;;;;;;;;6151824;23;20014;-83
2022/09/15 03:32:24;;;;;;;4.20;1.95;;;;;;;;;;6150045;23;20071;-83
2022/09/15 03:34:50;;;;;;;7.13;2.00;;;;;;;;;;6150300;23;20024;-83
2022/09/15 03:37:16;;;;;;;6.97;2.00;;;;;;;;;;6149165;23;20018;-83
2022/09/15 03:39:42;;;;;;;5.43;2.53;;;;;;;;;;6151488;23;20025;-83
2022/09/15 03:42:08;;;;;;;9.70;2.03;;;;;;;;;;6151760;23;20014;-83
2022/09/15 03:44:34;;;;;;;7.25;2.35;;;;;;;;;;6150841;23;20379;-83
2022/09/15 03:47:01;;;;;;;9.70;2.50;;;;;;;;;;6151264;23;20450;-83
2022/09/15 03:49:27;;;;;;;8.10;2.58;;;;;;;;;;6151982;23;20014;-83
2022/09/15 03:51:53;;;;;;;7.05;2.45;;;;;;;;;;6124139;23;20028;-83
2022/09/15 03:54:19;;;;;;;4.25;1.90;;;;;;;;;;6150964;23;20025;-83
2022/09/15 03:56:47;;;;;;;5.93;1.83;;;;;;;;;;6151569;23;20025;-83
2022/09/15 03:59:14;;;;;;;15.52;7.50;;;;;;;;;;6151831;23;20129;-83
2022/09/15 04:01:40;;;;;;;3.17;1.40;;;;;;;;;;6149433;23;20100;-83
2022/09/15 04:04:07;;;;;;;4.85;1.17;;;;;;;;;;6150557;23;20327;-83
2022/09/15 04:06:34;;;;;;;4.85;1.45;;;;;;;;;;6151066;23;20068;-82
2022/09/15 04:09:00;;;;;;;3.55;1.60;;;;;;;;;;6151798;23;20025;-83
2022/09/15 04:11:26;;;;;;;3.83;1.52;;;;;;;;;;6151575;23;20021;-83
2022/09/15 04:13:52;;;;;;;4.90;1.90;;;;;;;;;;6150983;23;20013;-82
2022/09/15 04:16:19;;;;;;;8.43;1.73;;;;;;;;;;6150350;23;20028;-83
2022/09/15 04:18:45;;;;;;;2.65;1.80;;;;;;;;;;6152147;23;20013;-82
2022/09/15 04:21:12;;;;;;;5.50;1.83;;;;;;;;;;6148935;23;20112;-82
2022/09/15 04:23:39;;;;;;;6.20;1.80;;;;;;;;;;6150707;23;20090;-82
2022/09/15 04:26:06;;;;;;;5.53;1.70;;;;;;;;;;6150082;23;20024;-82
2022/09/15 04:28:34;;;;;;;6.22;2.25;;;;;;;;;;6151623;23;20067;-82
2022/09/15 04:31:05;;;;;;;8.32;2.00;;;;;;;;;;6149292;23;20017;-82
2022/09/15 04:33:31;;;;;;;8.73;2.10;;;;;;;;;;6150073;23;20033;-82
2022/09/15 04:36:04;;;;;;;11.77;2.70;;;;;;;;;;6150537;23;20014;-82
2022/09/15 04:38:30;;;;;;;8.02;3.08;;;;;;;;;;6149823;23;20013;-82
2022/09/15 04:40:57;;;;;;;8.93;2.10;;;;;;;;;;6151068;23;20136;-83
2022/09/15 04:43:23;;;;;;;8.65;2.10;;;;;;;;;;6148705;23;20175;-82
2022/09/15 04:45:49;;;;;;;13.10;4.05;;;;;;;;;;6151157;23;20041;-82
2022/09/15 04:48:16;;;;;;;7.72;2.67;;;;;;;;;;6151597;23;20017;-82
2022/09/15 04:50:42;;;;;;;17.20;3.25;;;;;;;;;;6150648;23;20014;-82
2022/09/15 04:53:08;;;;;;;7.65;2.58;;;;;;;;;;6144397;22;20466;-82
2022/09/15 04:55:34;;;;;;;9.23;2.05;;;;;;;;;;6150792;23;20458;-82
2022/09/15 04:58:01;;;;;;;7.65;2.42;;;;;;;;;;6149554;23;20017;-82
2022/09/15 05:00:27;;;;;;;5.50;2.63;;;;;;;;;;6150013;23;20080;-82
2022/09/15 05:02:54;;;;;;;7.55;2.20;;;;;;;;;;6150671;23;20028;-82
2022/09/15 05:05:20;;;;;;;8.35;2.38;;;;;;;;;;6148109;23;20017;-82
2022/09/15 05:07:49;;;;;;;6.70;2.20;;;;;;;;;;6150918;23;20013;-82
2022/09/15 05:10:15;;;;;;;6.68;2.05;;;;;;;;;;6149533;23;20049;-82
2022/09/15 05:12:41;;;;;;;7.38;2.10;;;;;;;;;;6150638;23;20024;-82
2022/09/15 05:15:07;;;;;;;7.32;1.92;;;;;;;;;;6149800;23;20080;-82
2022/09/15 05:17:34;;;;;;;6.15;1.80;;;;;;;;;;6149002;23;20497;-82
2022/09/15 05:20:00;;;;;;;6.68;2.40;;;;;;;;;;6150282;23;20052;-82
2022/09/15 05:22:27;;;;;;;8.25;2.53;;;;;;;;;;6150805;23;20498;-82
2022/09/15 05:24:53;;;;;;;7.43;1.80;;;;;;;;;;6149757;23;20013;-82
2022/09/15 05:27:19;;;;;;;8.57;2.03;;;;;;;;;;6151241;23;20025;-85
2022/09/15 05:29:45;;;;;;;7.53;2.25;;;;;;;;;;6150742;23;20047;-82
2022/09/15 05:32:11;;;;;;;6.55;2.10;;;;;;;;;;6150663;23;20068;-82
2022/09/15 05:34:37;;;;;;;5.72;1.90;;;;;;;;;;6148588;23;20009;-82
2022/09/15 05:37:04;;;;;;;5.47;1.75;;;;;;;;;;6149431;23;20033;-82
2022/09/15 05:39:30;;;;;;;4.03;1.35;;;;;;;;;;6151950;23;20017;-82
2022/09/15 05:41:56;;;;;;;4.57;1.50;;;;;;;;;;6151011;23;20476;-82
2022/09/15 05:44:22;;;;;;;4.57;1.70;;;;;;;;;;6152215;23;20013;-82
2022/09/15 05:46:48;;;;;;;6.55;1.92;;;;;;;;;;6151495;23;20084;-82
2022/09/15 05:49:14;;;;;;;4.63;1.52;;;;;;;;;;6152517;23;20037;-82
2022/09/15 05:51:40;;;;;;;3.38;1.50;;;;;;;;;;6116255;23;20060;-82
2022/09/15 05:54:06;;;;;;;3.85;1.83;;;;;;;;;;6151682;23;20018;-82
2022/09/15 05:56:33;;;;;;;5.07;1.55;;;;;;;;;;6126718;23;20094;-82
2022/09/15 05:58:59;;;;;;;3.85;1.38;;;;;;;;;;6151901;23;20047;-82
2022/09/15 06:01:26;;;;;;;2.47;1.35;;;;;;;;;;6153192;23;20154;-82
2022/09/15 06:03:53;;;;;;;3.78;1.33;;;;;;;;;;6151403;23;20013;-83
2022/09/15 06:06:20;;;;;;;3.38;1.70;;;;;;;;;;6153570;23;20084;-85
2022/09/15 06:08:48;;;;;;;5.80;2.17;;;;;;;;;;6126505;23;20021;-83
2022/09/15 06:11:15;;;;;;;5.50;1.75;;;;;;;;;;6126687;23;20092;-85
2022/09/15 06:13:41;;;;;;;6.45;1.80;;;;;;;;;;6151217;23;20398;-83
2022/09/15 06:16:09;;;;;;;7.68;2.00;;;;;;;;;;6150437;23;20090;-83
2022/09/15 06:18:36;;;;;;;4.47;1.70;;;;;;;;;;6152605;23;20024;-83
2022/09/15 06:21:12;;;;;;;5.78;1.80;;;;;;;;;;6150686;23;20017;-83
2022/09/15 06:23:39;;;;;;;4.22;1.48;;;;;;;;;;6154034;23;20036;-81
2022/09/15 06:26:06;;;;;;;3.95;1.60;;;;;;;;;;6153403;23;20022;-84
2022/09/15 06:28:32;;;;;;;3.35;1.60;;;;;;;;;;6151260;23;20053;-83
2022/09/15 06:30:59;;;;;;;8.32;2.78;;;;;;;;;;6152148;23;20020;-83
2022/09/15 06:33:26;;;;;;;8.77;2.00;;;;;;;;;;6153776;23;20014;-83
2022/09/15 06:35:52;;;;;;;4.85;1.70;;;;;;;;;;6153435;23;20458;-83
2022/09/15 06:38:18;;;;;;;3.53;1.50;;;;;;;;;;6152397;23;20469;-83
2022/09/15 06:40:44;;;;;;;4.43;1.50;;;;;;;;;;6152301;23;20017;-83
2022/09/15 06:43:10;;;;;;;3.65;1.63;;;;;;;;;;6152248;23;20021;-83
2022/09/15 06:45:36;;;;;;;3.60;1.65;;;;;;;;;;6151435;23;20085;-83
2022/09/15 06:48:02;;;;;;;4.57;1.50;;;;;;;;;;6152089;23;20013;-83
2022/09/15 06:50:29;;;;;;;3.05;1.65;;;;;;;;;;6151712;23;20020;-82
2022/09/15 06:52:55;;;;;;;5.35;1.70;;;;;;;;;;6130534;23;20025;-83
2022/09/15 06:55:21;;;;;;;5.10;1.75;;;;;;;;;;6151168;23;20014;-83
2022/09/15 06:57:49;;;;;;;4.65;1.90;;;;;;;;;;6151984;23;20017;-83
2022/09/15 07:00:15;;;;;;;7.22;1.85;;;;;;;;;;6148689;23;20089;-83
2022/09/15 07:02:41;;;;;;;5.47;1.83;;;;;;;;;;6150384;23;20020;-82
2022/09/15 07:05:08;;;;;;;4.93;2.08;;;;;;;;;;6150802;23;20076;-83
2022/09/15 07:07:34;;;;;;;5.50;2.00;;;;;;;;;;6151097;23;20076;-83
2022/09/15 07:10:01;;;;;;;7.95;1.73;;;;;;;;;;6150055;23;20017;-83
2022/09/15 07:12:27;;;;;;;6.90;2.05;;;;;;;;;;6150063;23;20025;-82
2022/09/15 07:14:53;;;;;;;8.02;2.35;;;;;;;;;;6147789;23;20018;-82
2022/09/15 07:17:19;;;;;;;7.53;2.30;;;;;;;;;;6150240;23;20061;-88
2022/09/15 07:19:45;;;;;;;7.53;2.33;;;;;;;;;;6152925;23;20021;-88
2022/09/15 07:22:11;;;;;;;4.80;2.13;;;;;;;;;;6150720;23;20025;-87
2022/09/15 07:24:37;;;;;;;5.78;2.15;;;;;;;;;;6148467;23;20024;-86
2022/09/15 07:27:03;;;;;;;5.82;2.45;;;;;;;;;;6148520;23;20030;-86
2022/09/15 07:29:29;;;;;;;7.03;2.15;;;;;;;;;;6151213;23;20071;-86
2022/09/15 07:31:55;;;;;;;10.02;2.63;;;;;;;;;;6150034;23;20018;-86
2022/09/15 07:34:21;;;;;;;10.45;2.35;;;;;;;;;;6152059;23;20100;-86
2022/09/15 07:36:47;;;;;;;7.32;2.00;;;;;;;;;;6151867;23;20037;-86
2022/09/15 07:39:13;;;;;;;6.60;2.33;;;;;;;;;;6151418;23;20032;-86
2022/09/15 07:41:39;;;;;;;8.75;2.42;;;;;;;;;;6150586;23;20017;-86
2022/09/15 07:44:06;;;;;;;5.45;1.88;;;;;;;;;;6150798;23;20084;-86
2022/09/15 07:46:33;;;;;;;5.55;2.13;;;;;;;;;;6149750;23;20022;-87
2022/09/15 07:49:01;;;;;;;4.85;2.05;;;;;;;;;;6151099;23;20110;-86
2022/09/15 07:51:27;;;;;;;8.25;2.22;;;;;;;;;;6151923;23;20018;-86
2022/09/15 07:53:54;;;;;;;6.32;1.83;;;;;;;;;;6132154;23;20346;-89
2022/09/15 07:56:20;;;;;;;5.68;1.83;;;;;;;;;;6151773;23;20014;-87
2022/09/15 07:58:46;;;;;;;5.38;2.00;;;;;;;;;;6151329;23;20013;-87
2022/09/15 08:01:13;;;;;;;4.82;1.70;;;;;;;;;;6152914;23;20014;-86
2022/09/15 08:03:47;;;;;;;6.75;2.15;;;;;;;;;;6151735;23;20088;-86
2022/09/15 08:06:14;;;;;;;4.35;2.00;;;;;;;;;;6147651;23;20045;-86
2022/09/15 08:08:42;;;;;;;3.97;1.73;;;;;;;;;;6148985;23;20083;-86
2022/09/15 08:11:09;;;;;;;6.35;1.60;;;;;;;;;;6151132;23;20068;-85
2022/09/15 08:13:35;;;;;;;4.75;1.90;;;;;;;;;;6149558;23;20089;-85
2022/09/15 08:16:09;;;;;;;6.68;2.22;;;;;;;;;;6146956;23;20018;-86
2022/09/15 08:18:35;;;;;;;8.68;2.00;;;;;;;;;;6150017;23;20053;-86
2022/09/15 08:21:11;;;;;;;7.15;2.20;;;;;;;;;;6149421;23;20017;-86
2022/09/15 08:23:38;;;;;;;7.35;2.00;;;;;;;;;;6151761;23;20009;-86
2022/09/15 08:26:08;;;;;;;4.82;1.90;;;;;;;;;;6149774;23;20017;-87
2022/09/15 08:28:34;;;;;;;8.02;2.08;;;;;;;;;;6150188;23;20075;-86
2022/09/15 08:31:01;;;;;;;4.63;1.73;;;;;;;;;;6151892;23;20014;-86
2022/09/15 08:33:28;;;;;;;5.68;2.00;;;;;;;;;;6150317;23;20014;-86
2022/09/15 08:35:59;;;;;;;6.68;2.15;;;;;;;;;;6149809;23;20092;-86
2022/09/15 08:38:25;;;;;;;5.32;1.90;;;;;;;;;;6149035;23;20022;-86
2022/09/15 08:40:57;;;;;;;3.50;1.70;;;;;;;;;;6151269;23;20774;-86
2022/09/15 08:43:24;;;;;;;6.43;2.15;;;;;;;;;;6151647;23;20036;-86
2022/09/15 08:45:56;;;;;;;6.38;1.90;;;;;;;;;;6150250;23;20036;-86
2022/09/15 08:48:25;;;;;;;10.45;2.30;;;;;;;;;;6150799;23;20047;-86
2022/09/15 08:50:53;;;;;;;4.05;2.10;;;;;;;;;;6149446;23;20018;-86
2022/09/15 08:53:29;;;;;;;10.68;2.83;;;;;;;;;;6123769;23;20041;-88
2022/09/15 08:55:55;;;;;;;;;;;;;;;;;;6151277;23;20029;-87
2022/09/15 08:58:24;;;;;;;5.63;2.10;;;;;;;;;;6149366;23;19917;-86
2022/09/15 09:00:51;;;;;;;7.10;2.67;;;;;;;;;;6149959;23;20013;-92
2022/09/15 09:03:17;;;;;;;9.05;2.20;;;;;;;;;;6150947;23;20018;-87
2022/09/15 09:05:50;;;;;;;5.43;1.83;;;;;;;;;;6148975;23;20063;-87
2022/09/15 09:08:53;;;;;;;6.88;2.15;;;;;;;;;;6150143;23;20025;-86
2022/09/15 09:11:26;;;;;;;4.85;2.03;;;;;;;;;;6147496;23;20017;-86
2022/09/15 09:14:02;;;;;;;7.22;2.10;;;;;;;;;;6147233;23;20010;-86
2022/09/15 09:16:28;;;;;;;;;;;;;;;;;;6148370;23;20021;-89
2022/09/15 09:19:00;;;;;;;5.70;2.25;;;;;;;;;;6147612;23;19916;-87
2022/09/15 09:21:30;;;;;;;6.03;1.90;;;;;;;;;;6122860;23;20013;-87
2022/09/15 09:24:16;;;;;;;5.25;2.17;;;;;;;;;;6122900;23;20020;-87
2022/09/15 09:26:42;;;;;;;3.42;1.92;;;;;;;;;;6121813;23;20025;-87
2022/09/15 09:29:18;;;;;;;6.97;2.00;;;;;;;;;;6147075;23;20094;-87
2022/09/15 09:31:48;;;;;;;8.25;2.15;;;;;;;;;;6147596;23;20451;-87
2022/09/15 09:34:34;;;;;;;5.00;2.00;;;;;;;;;;6123119;23;20063;-87
2022/09/15 09:37:00;;;;;;;;;;;;;;;;;;6147297;23;20056;-87
2022/09/15 09:39:27;;;;;;;7.88;2.03;;;;;;;;;;6146617;23;19912;-87
2022/09/15 09:41:54;;;;;;;6.38;2.03;;;;;;;;;;6120705;23;20029;-86
2022/09/15 09:44:20;;;;;;;3.72;1.88;;;;;;;;;;6148462;23;20504;-87
2022/09/15 09:46:48;;;;;;;3.28;1.92;;;;;;;;;;6149487;23;20347;-87
2022/09/15 09:49:18;;;;;;;6.05;2.10;;;;;;;;;;6147948;23;20033;-87
2022/09/15 09:51:51;;;;;;;5.72;1.60;;;;;;;;;;6148980;23;20018;-87
2022/09/15 09:54:19;;;;;;;3.63;1.52;;;;;;;;;;6130846;23;20438;-87
2022/09/15 09:56:46;;;;;;;4.35;1.73;;;;;;;;;;6125265;23;20032;-94
2022/09/15 09:59:30;;;;;;;3.50;1.70;;;;;;;;;;6151376;23;20013;-90
2022/09/15 10:02:14;;;;;;;4.80;1.70;;;;;;;;;;6150452;23;20533;-86
2022/09/15 10:04:44;;;;;;;3.95;1.60;;;;;;;;;;6150858;23;20014;-86
2022/09/15 10:07:11;;;;;;;6.28;1.80;;;;;;;;;;6149124;23;20022;-86
2022/09/15 10:09:37;;;;;;;5.15;1.60;;;;;;;;;;6148197;23;20020;-86
2022/09/15 10:12:04;;;;;;;3.55;1.60;;;;;;;;;;6147451;23;20025;-86
2022/09/15 10:14:31;;;;;;;3.83;1.88;;;;;;;;;;6147421;23;20044;-86
2022/09/15 10:17:03;;;;;;;5.55;1.80;;;;;;;;;;6150127;23;20021;-86
2022/09/15 10:19:31;;;;;;;6.20;1.70;;;;;;;;;;6148282;23;20025;-88
2022/09/15 10:21:58;;;;;;;5.30;1.70;;;;;;;;;;6124266;23;20021;-86
2022/09/15 10:24:31;;;;;;;4.20;1.70;;;;;;;;;;6146889;23;20080;-86
2022/09/15 10:27:26;;;;;;;4.43;1.70;;;;;;;;;;6150184;23;20067;-86
2022/09/15 10:29:52;;;;;;;3.28;1.67;;;;;;;;;;6141740;23;20072;-86
2022/09/15 10:32:21;;;;;;;4.60;1.70;;;;;;;;;;6151109;23;20024;-87
2022/09/15 10:34:47;;;;;;;3.35;1.70;;;;;;;;;;6149412;23;20021;-88
2022/09/15 10:37:34;;;;;;;3.00;1.50;;;;;;;;;;6149011;23;20017;-88
2022/09/15 10:40:03;;;;;;;4.65;1.70;;;;;;;;;;6125078;23;20024;-87
2022/09/15 10:42:38;;;;;;;6.70;1.85;;;;;;;;;;6152251;23;20013;-86
2022/09/15 10:45:15;;;;;;;4.32;1.75;;;;;;;;;;6150474;23;20017;-86
2022/09/15 10:48:10;;;;;;;3.00;1.23;;;;;;;;;;6152728;23;20573;-87
2022/09/15 10:50:53;;;;;;;2.50;1.35;;;;;;;;;;6151977;23;20029;-87
2022/09/15 10:53:28;;;;;;;2.63;1.15;;;;;;;;;;6136564;23;20069;-87
2022/09/15 10:56:03;;;;;;;2.78;1.13;;;;;;;;;;6151774;23;20338;-85
2022/09/15 10:58:29;;;;;;;3.55;1.23;;;;;;;;;;6150152;23;20028;-85
2022/09/15 11:01:01;;;;;;;2.40;1.52;;;;;;;;;;6152175;23;20028;-85
2022/09/15 11:03:40;;;;;;;3.28;1.50;;;;;;;;;;6150276;23;20019;-86
2022/09/15 11:06:09;;;;;;;3.67;1.25;;;;;;;;;;6150305;23;20013;-86
2022/09/15 11:08:47;;;;;;;4.80;1.77;;;;;;;;;;6149659;23;20129;-86
2022/09/15 11:11:13;;;;;;;3.45;1.80;;;;;;;;;;6151904;23;20044;-85
2022/09/15 11:13:39;;;;;;;3.70;2.13;;;;;;;;;;6151791;23;20014;-85
2022/09/15 11:16:08;;;;;;;4.40;1.80;;;;;;;;;;6151411;23;20482;-86
2022/09/15 11:18:40;;;;;;;4.68;1.75;;;;;;;;;;6150218;23;20060;-85
2022/09/15 11:21:12;;;;;;;4.60;1.60;;;;;;;;;;6149248;23;20017;-86
2022/09/15 11:23:47;;;;;;;3.80;1.70;;;;;;;;;;6150354;23;20024;-86
2022/09/15 11:26:16;;;;;;;9.55;1.88;;;;;;;;;;6151544;23;20017;-88
2022/09/15 11:28:46;;;;;;;6.15;1.77;;;;;;;;;;6152142;23;20108;-90
2022/09/15 11:31:12;;;;;;;6.55;1.80;;;;;;;;;;6150555;23;20029;-90
2022/09/15 11:33:41;;;;;;;5.72;1.52;;;;;;;;;;6152272;23;20014;-91
2022/09/15 11:36:22;;;;;;;5.47;1.90;;;;;;;;;;6151948;23;20341;-91
2022/09/15 11:38:48;;;;;;;6.38;1.70;;;;;;;;;;6152332;23;20020;-88
2022/09/15 11:41:33;;;;;;;6.50;1.77;;;;;;;;;;6148633;23;20225;-89
2022/09/15 11:44:18;;;;;;;6.35;2.63;;;;;;;;;;6151402;23;20342;-88
2022/09/15 11:46:44;;;;;;;5.00;1.83;;;;;;;;;;6150912;23;20371;-88
2022/09/15 11:49:14;;;;;;;7.20;2.35;;;;;;;;;;6150834;23;20033;-90
2022/09/15 11:51:44;;;;;;;4.68;1.67;;;;;;;;;;6148612;23;20014;-87
2022/09/15 11:54:13;;;;;;;5.63;1.73;;;;;;;;;;6121852;23;20028;-87
2022/09/15 11:56:46;;;;;;;4.70;1.48;;;;;;;;;;6149742;23;20087;-89
2022/09/15 11:59:18;;;;;;;1.80;1.27;;;;;;;;;;6122509;23;20072;-88
2022/09/15 12:01:50;;;;;;;4.03;1.58;;;;;;;;;;6149273;23;20092;-88
2022/09/15 12:04:26;;;;;;;3.85;1.60;;;;;;;;;;6147971;23;20088;-88
2022/09/15 12:06:56;;;;;;;3.60;1.60;;;;;;;;;;6149642;23;20020;-89
2022/09/15 12:09:22;;;;;;;4.10;1.63;;;;;;;;;;6151094;23;20085;-88
2022/09/15 12:11:57;;;;;;;4.80;1.67;;;;;;;;;;6152078;23;20009;-87
2022/09/15 12:14:36;;;;;;;4.47;2.00;;;;;;;;;;6148468;23;20017;-87
2022/09/15 12:17:08;;;;;;;3.25;1.55;;;;;;;;;;6149840;23;20395;-87
2022/09/15 12:19:46;;;;;;;4.65;2.13;;;;;;;;;;6150241;23;20021;-88
2022/09/15 12:22:20;;;;;;;6.13;1.90;;;;;;;;;;6151853;23;20017;-90
2022/09/15 12:25:00;;;;;;;4.10;1.90;;;;;;;;;;6150965;23;20020;-87
2022/09/15 12:27:26;;;;;;;5.13;1.70;;;;;;;;;;6149938;23;20021;-87
2022/09/15 12:29:54;;;;;;;7.72;2.45;;;;;;;;;;6150732;23;20017;-87
2022/09/15 12:32:33;;;;;;;6.53;2.17;;;;;;;;;;6151903;23;20018;-87
2022/09/15 12:35:18;;;;;;;5.50;2.00;;;;;;;;;;6150350;23;20052;-88
2022/09/15 12:37:48;;;;;;;9.60;2.33;;;;;;;;;;6149654;23;20021;-87
2022/09/15 12:40:32;;;;;;;6.13;2.25;;;;;;;;;;6150674;23;20068;-85
2022/09/15 12:42:59;;;;;;;7.70;2.03;;;;;;;;;;6149838;23;20350;-91
2022/09/15 12:45:27;;;;;;;7.43;2.20;;;;;;;;;;6151887;23;20021;-89
2022/09/15 12:48:02;;;;;;;7.15;2.00;;;;;;;;;;6151275;23;20346;-92
2022/09/15 12:50:38;;;;;;;3.58;1.48;;;;;;;;;;6151418;23;20025;-88
2022/09/15 12:53:24;;;;;;;5.90;1.77;;;;;;;;;;6130923;23;20044;-87
2022/09/15 12:55:59;;;;;;;3.58;1.70;;;;;;;;;;6150883;23;20028;-89
2022/09/15 12:58:29;;;;;;;4.10;2.10;;;;;;;;;;6151300;23;20028;-89
2022/09/15 13:01:15;;;;;;;6.55;2.15;;;;;;;;;;6150759;23;20021;-90
2022/09/15 13:03:41;;;;;;;5.82;2.70;;;;;;;;;;6150708;23;20018;-89
2022/09/15 13:06:10;;;;;;;5.65;2.25;;;;;;;;;;6149091;23;20371;-89
2022/09/15 13:08:36;;;;;;;7.35;2.00;;;;;;;;;;6150037;23;20019;-90
2022/09/15 13:11:33;;;;;;;4.60;1.83;;;;;;;;;;6149161;23;20088;-90
2022/09/15 13:14:13;;;;;;;6.03;2.55;;;;;;;;;;6149112;23;20083;-89
2022/09/15 13:16:45;;;;;;;4.05;1.67;;;;;;;;;;6151706;23;20084;-89
2022/09/15 13:19:30;;;;;;;9.75;1.95;;;;;;;;;;6148168;23;20514;-89
2022/09/15 13:22:11;;;;;;;3.05;1.60;;;;;;;;;;6149013;23;20017;-90
2022/09/15 13:24:49;;;;;;;3.97;1.80;;;;;;;;;;6146473;23;20489;-89
2022/09/15 13:27:18;;;;;;;4.45;2.05;;;;;;;;;;6147299;23;20017;-90
2022/09/15 13:29:46;;;;;;;4.63;1.75;;;;;;;;;;6147362;23;20028;-89
2022/09/15 13:32:15;;;;;;;4.95;2.10;;;;;;;;;;6146533;23;20327;-89
2022/09/15 13:35:00;;;;;;;4.00;1.70;;;;;;;;;;6148409;23;20100;-89
2022/09/15 13:37:38;;;;;;;5.93;2.20;;;;;;;;;;6149072;23;20025;-89
2022/09/15 13:40:11;;;;;;;5.78;2.00;;;;;;;;;;6149426;23;20438;-87
2022/09/15 13:42:56;;;;;;;5.10;1.70;;;;;;;;;;6149642;23;20033;-86
2022/09/15 13:45:48;;;;;;;6.15;2.03;;;;;;;;;;6122908;23;20018;-86
2022/09/15 13:48:22;;;;;;;4.63;1.75;;;;;;;;;;6146579;23;20022;-87
2022/09/15 13:51:15;;;;;;;4.78;1.70;;;;;;;;;;6148321;23;20014;-88
2022/09/15 13:53:56;;;;;;;8.15;2.60;;;;;;;;;;6120151;23;20316;-89
2022/09/15 13:56:25;;;;;;;6.63;2.13;;;;;;;;;;6146811;23;20092;-85
2022/09/15 13:58:52;;;;;;;4.20;1.83;;;;;;;;;;6148894;23;20029;-87
2022/09/15 14:01:20;;;;;;;4.43;1.80;;;;;;;;;;6150561;23;20403;-86
2022/09/15 14:03:49;;;;;;;6.40;2.10;;;;;;;;;;6151875;23;20013;-86
2022/09/15 14:06:23;;;;;;;5.60;2.00;;;;;;;;;;6151352;23;20025;-87
2022/09/15 14:08:52;;;;;;;5.30;1.85;;;;;;;;;;6151833;23;20021;-87
2022/09/15 14:11:21;;;;;;;6.18;2.10;;;;;;;;;;6151509;23;20092;-87
2022/09/15 14:13:48;;;;;;;7.68;1.98;;;;;;;;;;6151569;23;20682;-87
2022/09/15 14:16:22;;;;;;;5.35;2.10;;;;;;;;;;6149712;23;20130;-88
2022/09/15 14:18:49;;;;;;;6.10;1.88;;;;;;;;;;6152749;23;20044;-87
2022/09/15 14:21:16;;;;;;;6.43;1.77;;;;;;;;;;6151439;23;20418;-88
2022/09/15 14:23:50;;;;;;;4.53;1.90;;;;;;;;;;6150794;23;20568;-89
2022/09/15 14:26:18;;;;;;;5.18;1.77;;;;;;;;;;6153149;23;20080;-88
2022/09/15 14:28:48;;;;;;;5.72;2.22;;;;;;;;;;6152212;23;20024;-89
2022/09/15 14:31:14;;;;;;;7.95;2.08;;;;;;;;;;6151369;23;20017;-88
2022/09/15 14:33:41;;;;;;;5.78;1.90;;;;;;;;;;6151135;23;20496;-89
2022/09/15 14:36:14;;;;;;;4.80;1.90;;;;;;;;;;6150341;23;20013;-88
2022/09/15 14:38:41;;;;;;;6.20;1.80;;;;;;;;;;6152664;23;20028;-88
2022/09/15 14:41:17;;;;;;;7.70;1.90;;;;;;;;;;6152228;23;20016;-88
2022/09/15 14:43:43;;;;;;;3.90;1.50;;;;;;;;;;6151354;23;20028;-88
2022/09/15 14:46:10;;;;;;;3.10;1.40;;;;;;;;;;6151348;23;20048;-88
2022/09/15 14:48:37;;;;;;;4.97;1.70;;;;;;;;;;6151482;23;20446;-88
2022/09/15 14:51:18;;;;;;;4.13;1.63;;;;;;;;;;6150701;23;20009;-88
2022/09/15 14:53:44;;;;;;;3.22;1.30;;;;;;;;;;6147951;23;20025;-88
2022/09/15 14:56:14;;;;;;;6.25;1.50;;;;;;;;;;6122110;23;20025;-87
2022/09/15 14:58:41;;;;;;;4.70;1.23;;;;;;;;;;6149513;23;20021;-87
2022/09/15 15:01:20;;;;;;;4.57;1.60;;;;;;;;;;6148414;23;20504;-87
2022/09/15 15:04:13;;;;;;;7.15;1.73;;;;;;;;;;6150873;23;20014;-87
2022/09/15 15:06:44;;;;;;;5.55;1.65;;;;;;;;;;6150653;23;20013;-87